createdAt,value
2019-01-16T00:00:05.931Z,7.00
2019-01-16T00:01:05.924Z,6.40
2019-01-16T00:02:05.918Z,9.30
2019-01-16T00:03:05.911Z,7.70
2019-01-16T00:04:05.904Z,7.20
2019-01-16T00:05:05.898Z,8.50
2019-01-16T00:06:05.891Z,8.40
2019-01-16T00:07:05.886Z,6.00
2019-01-16T00:08:05.878Z,9.60
2019-01-16T00:09:05.872Z,9.40
2019-01-16T00:10:05.866Z,9.00
2019-01-16T00:11:05.861Z,6.00
2019-01-16T00:12:05.854Z,9.60
2019-01-16T00:13:05.845Z,6.30
2019-01-16T00:14:05.839Z,10.00
2019-01-16T00:15:05.836Z,9.00
2019-01-16T00:16:05.826Z,9.10
2019-01-16T00:17:05.820Z,9.40
2019-01-16T00:18:05.813Z,11.10
2019-01-16T00:19:05.808Z,12.20
2019-01-16T00:20:05.800Z,13.20
2019-01-16T00:21:05.793Z,9.90
2019-01-16T00:22:05.787Z,11.10
2019-01-16T00:23:05.781Z,10.00
2019-01-16T00:24:05.775Z,10.10
2019-01-16T00:25:05.772Z,8.80
2019-01-16T00:26:05.763Z,9.30
2019-01-16T00:27:05.756Z,13.00
2019-01-16T00:28:05.748Z,9.10
2019-01-16T00:29:05.742Z,12.90
2019-01-16T00:30:05.734Z,11.60
2019-01-16T00:31:05.731Z,9.00
2019-01-16T00:32:05.721Z,10.30
2019-01-16T00:33:05.716Z,12.70
2019-01-16T00:34:05.709Z,12.20
2019-01-16T00:35:05.705Z,15.80
2019-01-16T00:36:05.695Z,13.50
2019-01-16T00:37:05.690Z,9.70
2019-01-16T00:38:05.684Z,8.40
2019-01-16T00:39:05.678Z,7.30
2019-01-16T00:40:05.670Z,8.90
2019-01-16T00:41:05.669Z,11.30
2019-01-16T00:42:05.661Z,12.20
2019-01-16T00:43:05.652Z,12.70
2019-01-16T00:44:05.645Z,16.50
2019-01-16T00:45:05.637Z,12.80
2019-01-16T00:46:05.634Z,14.20
2019-01-16T00:47:05.625Z,12.60
2019-01-16T00:48:05.619Z,11.80
2019-01-16T00:49:05.611Z,14.50
2019-01-16T00:50:05.607Z,15.00
2019-01-16T00:51:05.599Z,14.80
2019-01-16T00:52:05.592Z,13.00
2019-01-16T00:53:05.586Z,14.90
2019-01-16T00:54:05.583Z,12.20
2019-01-16T00:55:05.574Z,14.70
2019-01-16T00:56:05.566Z,11.90
2019-01-16T00:57:05.561Z,12.20
2019-01-16T00:58:05.554Z,10.50
2019-01-16T00:59:05.587Z,15.20
2019-01-16T01:00:05.541Z,13.00
2019-01-16T01:01:05.534Z,11.70
2019-01-16T01:02:05.528Z,8.30
2019-01-16T01:03:05.521Z,10.90
2019-01-16T01:04:05.514Z,10.60
2019-01-16T01:05:05.507Z,9.40
2019-01-16T01:06:05.506Z,9.90
2019-01-16T01:07:05.495Z,13.70
2019-01-16T01:08:05.490Z,13.50
2019-01-16T01:09:07.187Z,10.20
2019-01-16T01:10:05.474Z,13.90
2019-01-16T01:11:05.468Z,12.90
2019-01-16T01:12:05.460Z,13.40
2019-01-16T01:13:05.456Z,15.20
2019-01-16T01:14:05.454Z,13.20
2019-01-16T01:15:05.445Z,12.80
2019-01-16T01:16:05.437Z,14.30
2019-01-16T01:17:05.429Z,12.20
2019-01-16T01:18:05.424Z,11.30
2019-01-16T01:19:05.417Z,10.90
2019-01-16T01:20:05.411Z,11.80
2019-01-16T01:21:05.403Z,9.50
2019-01-16T01:22:05.398Z,10.30
2019-01-16T01:23:05.389Z,10.50
2019-01-16T01:24:05.382Z,7.60
2019-01-16T01:25:05.375Z,11.80
2019-01-16T01:26:05.372Z,12.00
2019-01-16T01:27:05.363Z,12.10
2019-01-16T01:28:05.357Z,12.10
2019-01-16T01:29:05.352Z,9.20
2019-01-16T01:30:05.344Z,12.50
2019-01-16T01:31:05.337Z,9.80
2019-01-16T01:32:05.329Z,11.90
2019-01-16T01:33:05.324Z,13.30
2019-01-16T01:34:05.318Z,10.90
2019-01-16T01:35:05.312Z,8.90
2019-01-16T01:36:05.304Z,9.20
2019-01-16T01:37:05.298Z,11.50
2019-01-16T01:38:05.293Z,12.20
2019-01-16T01:39:05.287Z,9.90
2019-01-16T01:40:05.278Z,10.40
2019-01-16T01:41:05.272Z,10.00
2019-01-16T01:42:05.266Z,9.20
2019-01-16T01:43:05.259Z,9.70
2019-01-16T01:44:05.252Z,9.40
2019-01-16T01:45:05.246Z,8.80
2019-01-16T01:46:05.246Z,13.70
2019-01-16T01:47:05.234Z,10.50
2019-01-16T01:48:05.227Z,10.20
2019-01-16T01:49:05.220Z,12.80
2019-01-16T01:50:05.214Z,11.60
2019-01-16T01:51:05.208Z,10.30
2019-01-16T01:52:05.202Z,9.40
2019-01-16T01:53:05.196Z,11.00
2019-01-16T01:54:05.189Z,10.10
2019-01-16T01:55:05.183Z,10.70
2019-01-16T01:56:05.174Z,12.70
2019-01-16T01:57:05.169Z,8.80
2019-01-16T01:58:05.163Z,9.30
2019-01-16T01:59:05.159Z,8.90
2019-01-16T02:00:05.153Z,9.30
2019-01-16T02:01:05.143Z,6.70
2019-01-16T02:02:05.136Z,9.70
2019-01-16T02:03:05.134Z,10.40
2019-01-16T02:04:05.122Z,8.80
2019-01-16T02:05:05.118Z,9.10
2019-01-16T02:06:05.113Z,8.60
2019-01-16T02:07:05.104Z,8.70
2019-01-16T02:08:05.098Z,9.80
2019-01-16T02:09:05.093Z,11.20
2019-01-16T02:10:05.085Z,11.70
2019-01-16T02:11:05.078Z,9.90
2019-01-16T02:12:05.070Z,9.80
2019-01-16T02:13:05.065Z,10.20
2019-01-16T02:14:05.058Z,10.30
2019-01-16T02:15:05.053Z,10.70
2019-01-16T02:16:05.045Z,11.00
2019-01-16T02:17:05.039Z,7.40
2019-01-16T02:18:05.033Z,8.00
2019-01-16T02:19:05.026Z,8.30
2019-01-16T02:20:05.020Z,9.10
2019-01-16T02:21:05.012Z,10.10
2019-01-16T02:22:05.008Z,12.70
2019-01-16T02:23:05.001Z,8.80
2019-01-16T02:24:04.996Z,11.80
2019-01-16T02:25:04.988Z,12.80
2019-01-16T02:26:04.981Z,13.00
2019-01-16T02:27:04.975Z,8.60
2019-01-16T02:28:04.968Z,9.90
2019-01-16T02:29:04.962Z,8.50
2019-01-16T02:30:04.956Z,12.40
2019-01-16T02:31:04.948Z,11.60
2019-01-16T02:32:04.941Z,9.50
2019-01-16T02:33:04.935Z,7.10
2019-01-16T02:34:04.931Z,11.40
2019-01-16T02:35:04.922Z,6.90
2019-01-16T02:36:04.918Z,7.10
2019-01-16T02:37:04.911Z,7.40
2019-01-16T02:38:04.910Z,8.30
2019-01-16T02:39:04.898Z,10.50
2019-01-16T02:40:04.889Z,11.00
2019-01-16T02:41:04.883Z,9.20
2019-01-16T02:42:04.890Z,8.20
2019-01-16T02:43:04.871Z,10.40
2019-01-16T02:44:04.864Z,9.90
2019-01-16T02:45:04.859Z,12.40
2019-01-16T02:46:04.852Z,7.80
2019-01-16T02:47:04.848Z,8.60
2019-01-16T02:48:04.837Z,9.20
2019-01-16T02:49:04.835Z,8.70
2019-01-16T02:50:04.828Z,8.50
2019-01-16T02:51:04.819Z,14.10
2019-01-16T02:52:04.813Z,10.50
2019-01-16T02:53:04.805Z,10.70
2019-01-16T02:54:04.801Z,9.20
2019-01-16T02:55:04.794Z,9.00
2019-01-16T02:56:04.793Z,9.90
2019-01-16T02:57:04.800Z,10.70
2019-01-16T02:58:04.778Z,9.20
2019-01-16T02:59:04.767Z,8.00
2019-01-16T03:00:04.762Z,9.50
2019-01-16T03:01:04.753Z,7.70
2019-01-16T03:02:04.749Z,6.90
2019-01-16T03:03:04.743Z,6.70
2019-01-16T03:04:04.736Z,9.00
2019-01-16T03:05:04.729Z,11.10
2019-01-16T03:06:04.725Z,8.80
2019-01-16T03:07:04.717Z,9.70
2019-01-16T03:08:04.709Z,11.10
2019-01-16T03:09:04.712Z,9.70
2019-01-16T03:10:04.697Z,8.80
2019-01-16T03:11:04.692Z,8.60
2019-01-16T03:12:04.683Z,8.30
2019-01-16T03:13:04.679Z,13.70
2019-01-16T03:14:04.671Z,10.60
2019-01-16T03:15:04.666Z,8.70
2019-01-16T03:16:04.657Z,8.60
2019-01-16T03:17:04.651Z,10.00
2019-01-16T03:18:04.645Z,10.30
2019-01-16T03:19:04.944Z,11.80
2019-01-16T03:20:04.632Z,9.60
2019-01-16T03:21:04.626Z,8.40
2019-01-16T03:22:04.622Z,9.80
2019-01-16T03:23:04.613Z,9.70
2019-01-16T03:24:04.608Z,10.90
2019-01-16T03:25:04.599Z,10.10
2019-01-16T03:26:04.595Z,8.30
2019-01-16T03:27:04.587Z,7.50
2019-01-16T03:28:04.580Z,7.00
2019-01-16T03:29:04.575Z,7.30
2019-01-16T03:30:04.568Z,11.70
2019-01-16T03:31:04.563Z,7.10
2019-01-16T03:32:04.556Z,11.80
2019-01-16T03:33:04.561Z,8.30
2019-01-16T03:34:04.544Z,8.10
2019-01-16T03:35:04.537Z,9.30
2019-01-16T03:36:04.531Z,11.40
2019-01-16T03:37:04.527Z,8.80
2019-01-16T03:38:04.517Z,8.50
2019-01-16T03:39:04.510Z,7.90
2019-01-16T03:40:04.504Z,10.50
2019-01-16T03:41:04.497Z,12.10
2019-01-16T03:42:04.490Z,8.60
2019-01-16T03:43:04.488Z,9.20
2019-01-16T03:44:04.482Z,11.30
2019-01-16T03:45:04.473Z,12.10
2019-01-16T03:46:04.465Z,10.00
2019-01-16T03:47:04.460Z,7.40
2019-01-16T03:48:04.453Z,7.80
2019-01-16T03:49:12.745Z,8.80
2019-01-16T03:50:04.446Z,11.00
2019-01-16T03:51:04.434Z,8.70
2019-01-16T03:52:04.430Z,14.00
2019-01-16T03:53:04.426Z,9.30
2019-01-16T03:54:04.416Z,11.90
2019-01-16T03:55:04.411Z,10.00
2019-01-16T03:56:04.408Z,9.60
2019-01-16T03:57:04.394Z,11.70
2019-01-16T03:58:04.388Z,9.60
2019-01-16T03:59:04.382Z,12.90
2019-01-16T04:00:04.377Z,11.10
2019-01-16T04:01:04.369Z,11.40
2019-01-16T04:02:04.363Z,9.20
2019-01-16T04:03:04.559Z,12.00
2019-01-16T04:04:04.350Z,9.20
2019-01-16T04:05:04.342Z,11.50
2019-01-16T04:06:04.341Z,12.10
2019-01-16T04:07:04.330Z,8.90
2019-01-16T04:08:04.323Z,13.20
2019-01-16T04:09:04.318Z,8.20
2019-01-16T04:10:04.312Z,9.10
2019-01-16T04:11:04.307Z,11.90
2019-01-16T04:12:04.298Z,9.80
2019-01-16T04:13:04.297Z,11.40
2019-01-16T04:14:04.301Z,8.90
2019-01-16T04:15:04.280Z,6.80
2019-01-16T04:16:04.272Z,10.40
2019-01-16T04:17:04.265Z,10.40
2019-01-16T04:18:04.259Z,12.80
2019-01-16T04:19:04.255Z,9.70
2019-01-16T04:20:04.247Z,8.80
2019-01-16T04:21:04.241Z,12.00
2019-01-16T04:22:04.234Z,11.80
2019-01-16T04:23:04.228Z,10.00
2019-01-16T04:24:04.220Z,8.90
2019-01-16T04:25:04.216Z,8.20
2019-01-16T04:26:04.210Z,8.90
2019-01-16T04:27:04.207Z,10.20
2019-01-16T04:28:04.196Z,10.90
2019-01-16T04:29:04.189Z,13.20
2019-01-16T04:30:04.185Z,10.60
2019-01-16T04:31:04.177Z,13.20
2019-01-16T04:32:04.171Z,14.20
2019-01-16T04:33:04.164Z,8.60
2019-01-16T04:34:04.159Z,7.90
2019-01-16T04:35:04.150Z,6.40
2019-01-16T04:36:04.146Z,6.40
2019-01-16T04:37:04.138Z,7.00
2019-01-16T04:38:04.132Z,12.50
2019-01-16T04:39:04.128Z,8.70
2019-01-16T04:40:04.119Z,8.30
2019-01-16T04:41:04.115Z,8.90
2019-01-16T04:42:04.107Z,8.90
2019-01-16T04:43:04.099Z,9.70
2019-01-16T04:44:04.093Z,9.10
2019-01-16T04:45:04.090Z,8.60
2019-01-16T04:46:04.081Z,8.90
2019-01-16T04:47:04.077Z,7.10
2019-01-16T04:48:04.066Z,7.90
2019-01-16T04:49:04.060Z,8.50
2019-01-16T04:50:04.054Z,7.20
2019-01-16T04:51:04.050Z,7.50
2019-01-16T04:52:04.042Z,9.90
2019-01-16T04:53:04.034Z,12.20
2019-01-16T04:54:04.030Z,13.90
2019-01-16T04:55:04.023Z,10.70
2019-01-16T04:56:04.016Z,11.00
2019-01-16T04:57:04.010Z,10.80
2019-01-16T04:58:04.003Z,9.30
2019-01-16T04:59:03.998Z,10.10
2019-01-16T05:00:03.991Z,11.60
2019-01-16T05:01:03.999Z,7.80
2019-01-16T05:02:03.978Z,7.10
2019-01-16T05:03:03.969Z,6.20
2019-01-16T05:04:03.964Z,9.80
2019-01-16T05:05:03.957Z,6.70
2019-01-16T05:06:03.950Z,8.70
2019-01-16T05:07:03.944Z,10.00
2019-01-16T05:08:03.937Z,11.90
2019-01-16T05:09:03.933Z,11.50
2019-01-16T05:10:03.927Z,11.40
2019-01-16T05:11:03.921Z,10.50
2019-01-16T05:12:03.910Z,10.00
2019-01-16T05:13:03.906Z,7.70
2019-01-16T05:14:03.898Z,9.50
2019-01-16T05:15:03.891Z,12.90
2019-01-16T05:16:03.884Z,9.20
2019-01-16T05:17:03.878Z,11.30
2019-01-16T05:18:03.875Z,13.20
2019-01-16T05:19:03.865Z,15.70
2019-01-16T05:20:03.861Z,11.80
2019-01-16T05:21:03.853Z,11.60
2019-01-16T05:22:03.845Z,11.30
2019-01-16T05:23:03.838Z,10.50
2019-01-16T05:24:03.832Z,8.90
2019-01-16T05:25:03.835Z,9.20
2019-01-16T05:26:03.819Z,12.40
2019-01-16T05:27:03.814Z,9.90
2019-01-16T05:28:03.807Z,11.70
2019-01-16T05:29:03.800Z,8.70
2019-01-16T05:30:03.793Z,8.50
2019-01-16T05:31:03.792Z,8.30
2019-01-16T05:32:03.777Z,9.70
2019-01-16T05:33:03.774Z,10.10
2019-01-16T05:34:03.768Z,6.90
2019-01-16T05:35:03.761Z,10.20
2019-01-16T05:36:03.751Z,10.60
2019-01-16T05:37:03.745Z,9.80
2019-01-16T05:38:03.739Z,9.10
2019-01-16T05:39:03.734Z,7.80
2019-01-16T05:40:03.726Z,10.20
2019-01-16T05:41:03.719Z,9.90
2019-01-16T05:42:03.712Z,10.10
2019-01-16T05:43:03.706Z,7.10
2019-01-16T05:44:03.699Z,9.00
2019-01-16T05:45:03.693Z,12.70
2019-01-16T05:46:03.691Z,12.20
2019-01-16T05:47:03.683Z,11.60
2019-01-16T05:48:03.673Z,9.60
2019-01-16T05:49:03.668Z,13.00
2019-01-16T05:50:03.659Z,10.20
2019-01-16T05:51:03.714Z,14.40
2019-01-16T05:52:03.645Z,12.80
2019-01-16T05:53:03.641Z,14.10
2019-01-16T05:54:03.633Z,10.10
2019-01-16T05:55:03.628Z,6.90
2019-01-16T05:56:03.618Z,8.00
2019-01-16T05:57:03.613Z,10.30
2019-01-16T05:58:03.606Z,8.00
2019-01-16T05:59:03.601Z,12.40
2019-01-16T06:00:03.593Z,14.10
2019-01-16T06:01:03.588Z,12.10
2019-01-16T06:02:03.578Z,12.80
2019-01-16T06:03:03.574Z,10.50
2019-01-16T06:04:03.564Z,12.10
2019-01-16T06:05:03.559Z,8.00
2019-01-16T06:06:03.553Z,7.90
2019-01-16T06:07:03.548Z,9.60
2019-01-16T06:08:03.539Z,12.80
2019-01-16T06:09:03.536Z,12.00
2019-01-16T06:10:03.526Z,9.80
2019-01-16T06:11:03.519Z,11.70
2019-01-16T06:12:03.511Z,13.30
2019-01-16T06:13:03.507Z,16.70
2019-01-16T06:14:03.497Z,11.80
2019-01-16T06:15:03.496Z,8.40
2019-01-16T06:16:03.484Z,8.80
2019-01-16T06:17:03.478Z,8.60
2019-01-16T06:18:03.470Z,19.30
2019-01-16T06:19:03.465Z,12.90
2019-01-16T06:20:03.460Z,13.10
2019-01-16T06:21:03.450Z,11.90
2019-01-16T06:22:03.445Z,14.20
2019-01-16T06:23:03.441Z,12.80
2019-01-16T06:24:03.431Z,12.60
2019-01-16T06:25:03.470Z,12.40
2019-01-16T06:26:03.416Z,6.80
2019-01-16T06:27:03.414Z,9.20
2019-01-16T06:28:03.403Z,9.50
2019-01-16T06:29:03.402Z,7.20
2019-01-16T06:30:03.395Z,9.10
2019-01-16T06:31:03.420Z,15.20
2019-01-16T06:32:03.375Z,12.10
2019-01-16T06:33:03.371Z,9.60
2019-01-16T06:34:03.363Z,6.70
2019-01-16T06:35:03.356Z,7.00
2019-01-16T06:36:03.351Z,7.30
2019-01-16T06:37:03.344Z,9.00
2019-01-16T06:38:03.337Z,10.60
2019-01-16T06:39:03.329Z,9.40
2019-01-16T06:40:03.323Z,5.80
2019-01-16T06:41:03.319Z,8.10
2019-01-16T06:42:03.310Z,7.50
2019-01-16T06:43:03.306Z,6.30
2019-01-16T06:44:03.295Z,6.70
2019-01-16T06:45:03.290Z,6.80
2019-01-16T06:46:03.283Z,7.60
2019-01-16T06:47:03.276Z,7.30
2019-01-16T06:48:03.267Z,7.00
2019-01-16T06:49:03.261Z,4.60
2019-01-16T06:50:03.256Z,6.50
2019-01-16T06:51:03.249Z,9.40
2019-01-16T06:52:03.241Z,6.80
2019-01-16T06:53:03.235Z,8.90
2019-01-16T06:54:03.227Z,6.40
2019-01-16T06:55:03.224Z,4.80
2019-01-16T06:56:03.213Z,6.40
2019-01-16T06:57:03.207Z,8.00
2019-01-16T06:58:03.201Z,5.60
2019-01-16T06:59:03.197Z,6.60
2019-01-16T07:00:03.187Z,4.80
2019-01-16T07:01:03.187Z,10.90
2019-01-16T07:02:03.174Z,8.40
2019-01-16T07:03:03.169Z,9.50
2019-01-16T07:04:03.159Z,4.80
2019-01-16T07:05:03.152Z,5.60
2019-01-16T07:06:03.147Z,7.20
2019-01-16T07:07:03.140Z,6.40
2019-01-16T07:08:03.131Z,7.20
2019-01-16T07:09:03.127Z,6.60
2019-01-16T07:10:03.120Z,4.40
2019-01-16T07:11:03.112Z,4.80
2019-01-16T07:12:03.107Z,4.20
2019-01-16T07:13:03.098Z,4.40
2019-01-16T07:14:03.093Z,7.00
2019-01-16T07:15:03.085Z,4.10
2019-01-16T07:16:03.078Z,7.30
2019-01-16T07:17:03.072Z,4.90
2019-01-16T07:18:03.064Z,7.70
2019-01-16T07:19:03.058Z,6.60
2019-01-16T07:20:09.417Z,4.20
2019-01-16T07:21:03.044Z,5.00
2019-01-16T07:22:03.037Z,4.10
2019-01-16T07:23:03.034Z,5.70
2019-01-16T07:24:03.024Z,5.20
2019-01-16T07:25:03.017Z,7.60
2019-01-16T07:26:03.016Z,6.00
2019-01-16T07:27:03.004Z,4.70
2019-01-16T07:28:02.997Z,5.80
2019-01-16T07:29:02.990Z,4.90
2019-01-16T07:30:02.984Z,5.10
2019-01-16T07:31:02.978Z,6.70
2019-01-16T07:32:02.969Z,4.70
2019-01-16T07:33:02.962Z,4.60
2019-01-16T07:34:02.957Z,6.20
2019-01-16T07:35:02.949Z,6.30
2019-01-16T07:36:02.944Z,5.40
2019-01-16T07:37:02.936Z,3.40
2019-01-16T07:38:02.930Z,4.30
2019-01-16T07:39:02.923Z,7.20
2019-01-16T07:40:02.914Z,4.10
2019-01-16T07:41:02.908Z,6.10
2019-01-16T07:42:02.903Z,4.60
2019-01-16T07:43:02.896Z,5.20
2019-01-16T07:44:02.887Z,6.70
2019-01-16T07:45:02.882Z,5.20
2019-01-16T07:46:02.874Z,6.40
2019-01-16T07:47:02.870Z,5.50
2019-01-16T07:48:02.860Z,4.10
2019-01-16T07:49:02.856Z,6.10
2019-01-16T07:50:02.846Z,3.50
2019-01-16T07:51:02.841Z,5.50
2019-01-16T07:52:02.835Z,7.20
2019-01-16T07:53:02.828Z,3.70
2019-01-16T07:54:02.821Z,5.60
2019-01-16T07:55:02.815Z,6.60
2019-01-16T07:56:02.807Z,4.30
2019-01-16T07:57:02.801Z,3.90
2019-01-16T07:58:02.797Z,4.00
2019-01-16T07:59:02.789Z,5.30
2019-01-16T08:00:02.780Z,3.10
2019-01-16T08:01:02.774Z,4.40
2019-01-16T08:02:02.768Z,3.90
2019-01-16T08:03:02.761Z,5.60
2019-01-16T08:04:02.752Z,4.30
2019-01-16T08:05:02.747Z,4.50
2019-01-16T08:06:02.740Z,6.70
2019-01-16T08:07:02.732Z,3.80
2019-01-16T08:08:02.726Z,4.80
2019-01-16T08:09:02.718Z,3.50
2019-01-16T08:10:02.713Z,3.60
2019-01-16T08:11:02.707Z,4.60
2019-01-16T08:12:02.699Z,3.30
2019-01-16T08:13:02.692Z,3.30
2019-01-16T08:14:02.685Z,3.10
2019-01-16T08:15:02.680Z,6.60
2019-01-16T08:16:02.676Z,2.80
2019-01-16T08:17:02.665Z,4.20
2019-01-16T08:18:02.660Z,4.00
2019-01-16T08:19:02.652Z,3.40
2019-01-16T08:20:02.645Z,3.80
2019-01-16T08:21:02.637Z,3.30
2019-01-16T08:22:02.630Z,5.10
2019-01-16T08:23:02.641Z,3.60
2019-01-16T08:24:02.617Z,4.80
2019-01-16T08:25:02.614Z,4.40
2019-01-16T08:26:02.604Z,4.60
2019-01-16T08:27:02.597Z,3.70
2019-01-16T08:28:02.590Z,3.90
2019-01-16T08:29:02.585Z,4.50
2019-01-16T08:30:02.577Z,2.80
2019-01-16T08:31:02.570Z,7.10
2019-01-16T08:32:02.563Z,3.00
2019-01-16T08:33:02.556Z,2.80
2019-01-16T08:34:02.549Z,3.20
2019-01-16T08:35:02.543Z,3.90
2019-01-16T08:36:02.535Z,5.20
2019-01-16T08:37:02.530Z,3.00
2019-01-16T08:38:02.521Z,3.00
2019-01-16T08:39:02.518Z,3.40
2019-01-16T08:40:02.508Z,5.90
2019-01-16T08:41:02.509Z,5.40
2019-01-16T08:42:02.494Z,2.60
2019-01-16T08:43:02.490Z,3.00
2019-01-16T08:44:02.481Z,3.30
2019-01-16T08:45:02.476Z,3.10
2019-01-16T08:46:02.468Z,3.40
2019-01-16T08:47:02.462Z,2.50
2019-01-16T08:48:02.453Z,3.70
2019-01-16T08:49:02.451Z,5.00
2019-01-16T08:50:02.442Z,3.20
2019-01-16T08:51:02.435Z,3.50
2019-01-16T08:52:02.427Z,2.80
2019-01-16T08:53:02.420Z,3.10
2019-01-16T08:54:02.414Z,2.30
2019-01-16T08:55:02.409Z,3.10
2019-01-16T08:56:02.400Z,5.40
2019-01-16T08:57:02.394Z,3.30
2019-01-16T08:58:02.387Z,5.00
2019-01-16T08:59:02.382Z,4.40
2019-01-16T09:00:02.375Z,2.70
2019-01-16T09:01:02.369Z,2.90
2019-01-16T09:02:02.360Z,5.10
2019-01-16T09:03:02.355Z,3.50
2019-01-16T09:04:02.348Z,6.10
2019-01-16T09:05:02.343Z,4.50
2019-01-16T09:06:02.335Z,2.50
2019-01-16T09:07:02.328Z,2.40
2019-01-16T09:08:02.319Z,2.40
2019-01-16T09:09:02.315Z,2.90
2019-01-16T09:10:02.307Z,4.20
2019-01-16T09:11:02.302Z,2.40
2019-01-16T09:12:02.293Z,3.20
2019-01-16T09:13:02.288Z,3.10
2019-01-16T09:14:02.282Z,3.80
2019-01-16T09:15:02.274Z,8.50
2019-01-16T09:16:02.269Z,2.30
2019-01-16T09:17:02.259Z,7.20
2019-01-16T09:18:02.254Z,2.90
2019-01-16T09:19:02.249Z,4.30
2019-01-16T09:20:02.242Z,3.30
2019-01-16T09:21:02.235Z,4.50
2019-01-16T09:22:02.229Z,4.90
2019-01-16T09:23:02.224Z,3.80
2019-01-16T09:24:02.213Z,2.60
2019-01-16T09:25:02.210Z,18.60
2019-01-16T09:26:02.202Z,32.70
2019-01-16T09:27:02.195Z,7.40
2019-01-16T09:28:02.189Z,8.30
2019-01-16T09:29:02.183Z,3.20
2019-01-16T09:30:02.179Z,4.30
2019-01-16T09:31:02.171Z,3.30
2019-01-16T09:32:02.163Z,3.70
2019-01-16T09:33:02.156Z,3.00
2019-01-16T09:34:02.150Z,4.70
2019-01-16T09:35:02.144Z,3.20
2019-01-16T09:36:02.136Z,2.10
2019-01-16T09:37:02.130Z,3.90
2019-01-16T09:38:02.124Z,2.60
2019-01-16T09:39:02.118Z,2.10
2019-01-16T09:40:02.110Z,2.30
2019-01-16T09:41:02.104Z,2.50
2019-01-16T09:42:02.102Z,3.80
2019-01-16T09:43:02.091Z,2.80
2019-01-16T09:44:02.085Z,3.00
2019-01-16T09:45:02.079Z,2.70
2019-01-16T09:46:02.072Z,2.70
2019-01-16T09:47:02.065Z,2.90
2019-01-16T09:48:02.057Z,2.90
2019-01-16T09:49:02.051Z,6.90
2019-01-16T09:50:02.044Z,4.70
2019-01-16T09:51:02.039Z,2.20
2019-01-16T09:52:02.032Z,2.10
2019-01-16T09:53:02.024Z,3.10
2019-01-16T09:54:02.021Z,3.50
2019-01-16T09:55:02.013Z,2.30
2019-01-16T09:56:02.006Z,2.30
2019-01-16T09:57:01.999Z,5.50
2019-01-16T09:58:01.993Z,2.90
2019-01-16T09:59:01.987Z,4.40
2019-01-16T10:00:01.990Z,2.50
2019-01-16T10:01:01.974Z,2.70
2019-01-16T10:02:01.968Z,2.00
2019-01-16T10:03:01.961Z,2.90
2019-01-16T10:04:01.953Z,2.50
2019-01-16T10:05:01.952Z,2.50
2019-01-16T10:06:01.942Z,2.20
2019-01-16T10:07:01.937Z,4.90
2019-01-16T10:08:01.932Z,2.60
2019-01-16T10:09:01.922Z,3.10
2019-01-16T10:10:01.918Z,2.30
2019-01-16T10:11:01.909Z,5.40
2019-01-16T10:12:01.907Z,4.30
2019-01-16T10:13:01.895Z,2.40
2019-01-16T10:14:01.989Z,3.30
2019-01-16T10:15:01.887Z,2.10
2019-01-16T10:16:01.877Z,2.90
2019-01-16T10:17:01.870Z,3.10
2019-01-16T10:18:01.864Z,9.30
2019-01-16T10:19:01.859Z,4.80
2019-01-16T10:20:01.850Z,2.30
2019-01-16T10:21:01.850Z,3.20
2019-01-16T10:22:01.837Z,2.20
2019-01-16T10:23:01.831Z,5.90
2019-01-16T10:24:01.827Z,3.60
2019-01-16T10:25:01.820Z,3.40
2019-01-16T10:26:01.820Z,3.40
2019-01-16T10:27:01.805Z,5.10
2019-01-16T10:28:01.803Z,2.90
2019-01-16T10:29:01.794Z,3.80
2019-01-16T10:30:01.788Z,2.10
2019-01-16T10:31:01.781Z,2.50
2019-01-16T10:32:01.774Z,6.40
2019-01-16T10:33:01.770Z,3.60
2019-01-16T10:34:01.761Z,5.00
2019-01-16T10:35:01.758Z,3.90
2019-01-16T10:36:01.750Z,3.00
2019-01-16T10:37:01.741Z,3.50
2019-01-16T10:38:01.737Z,3.00
2019-01-16T10:39:01.731Z,5.60
2019-01-16T10:40:01.721Z,3.00
2019-01-16T10:41:01.717Z,3.00
2019-01-16T10:42:01.709Z,2.70
2019-01-16T10:43:01.703Z,4.40
2019-01-16T10:44:01.697Z,3.70
2019-01-16T10:45:01.693Z,5.00
2019-01-16T10:46:01.683Z,6.60
2019-01-16T10:47:01.680Z,5.70
2019-01-16T10:48:01.671Z,3.90
2019-01-16T10:49:01.665Z,4.00
2019-01-16T10:50:01.657Z,8.20
2019-01-16T10:51:03.233Z,4.90
2019-01-16T10:52:01.645Z,7.30
2019-01-16T10:53:01.638Z,6.50
2019-01-16T10:54:01.632Z,5.10
2019-01-16T10:55:01.629Z,8.00
2019-01-16T10:56:01.619Z,5.10
2019-01-16T10:57:01.612Z,4.90
2019-01-16T10:58:01.605Z,3.60
2019-01-16T10:59:01.602Z,3.80
2019-01-16T11:00:01.593Z,4.70
2019-01-16T11:01:01.586Z,5.50
2019-01-16T11:02:01.581Z,7.80
2019-01-16T11:03:01.574Z,5.70
2019-01-16T11:04:01.567Z,4.80
2019-01-16T11:05:01.561Z,6.20
2019-01-16T11:06:01.555Z,5.60
2019-01-16T11:07:01.550Z,8.10
2019-01-16T11:08:01.541Z,7.50
2019-01-16T11:09:01.536Z,5.50
2019-01-16T11:10:01.534Z,5.90
2019-01-16T11:11:01.527Z,5.50
2019-01-16T11:12:01.516Z,6.40
2019-01-16T11:13:01.510Z,5.80
2019-01-16T11:14:01.504Z,5.70
2019-01-16T11:15:01.499Z,6.00
2019-01-16T11:16:01.491Z,8.10
2019-01-16T11:17:01.485Z,4.60
2019-01-16T11:18:01.478Z,5.80
2019-01-16T11:19:01.473Z,8.60
2019-01-16T11:20:01.468Z,7.00
2019-01-16T11:21:01.459Z,5.20
2019-01-16T11:22:01.454Z,10.10
2019-01-16T11:23:01.448Z,5.40
2019-01-16T11:24:01.442Z,9.00
2019-01-16T11:25:01.439Z,6.90
2019-01-16T11:26:01.433Z,8.20
2019-01-16T11:27:01.422Z,9.70
2019-01-16T11:28:01.415Z,6.20
2019-01-16T11:29:01.410Z,4.90
2019-01-16T11:30:01.403Z,7.10
2019-01-16T11:31:01.399Z,7.40
2019-01-16T11:32:01.391Z,6.40
2019-01-16T11:33:01.384Z,9.80
2019-01-16T11:34:01.377Z,7.70
2019-01-16T11:35:01.371Z,8.00
2019-01-16T11:36:01.363Z,6.40
2019-01-16T11:37:01.358Z,5.20
2019-01-16T11:38:01.352Z,8.50
2019-01-16T11:39:01.346Z,8.60
2019-01-16T11:40:04.759Z,6.40
2019-01-16T11:41:01.333Z,7.00
2019-01-16T11:42:01.326Z,9.00
2019-01-16T11:43:01.320Z,6.10
2019-01-16T11:44:01.313Z,8.20
2019-01-16T11:45:01.307Z,6.40
2019-01-16T11:46:01.300Z,4.90
2019-01-16T11:47:01.296Z,7.20
2019-01-16T11:48:01.288Z,7.30
2019-01-16T11:49:01.283Z,11.60
2019-01-16T11:50:01.280Z,6.90
2019-01-16T11:51:01.275Z,7.20
2019-01-16T11:52:01.261Z,6.40
2019-01-16T11:53:01.255Z,7.20
2019-01-16T11:54:01.251Z,5.80
2019-01-16T11:55:01.242Z,8.00
2019-01-16T11:56:01.236Z,9.50
2019-01-16T11:57:01.229Z,10.40
2019-01-16T11:58:01.224Z,9.90
2019-01-16T11:59:01.219Z,7.90
2019-01-16T12:00:01.213Z,9.90
2019-01-16T12:01:01.204Z,11.60
2019-01-16T12:02:01.198Z,12.00
2019-01-16T12:03:01.197Z,6.00
2019-01-16T12:04:01.184Z,10.40
2019-01-16T12:05:01.180Z,11.40
2019-01-16T12:06:01.174Z,8.00
2019-01-16T12:07:01.169Z,7.10
2019-01-16T12:08:01.161Z,7.80
2019-01-16T12:09:01.154Z,5.50
2019-01-16T12:10:01.149Z,6.90
2019-01-16T12:11:01.143Z,9.20
2019-01-16T12:12:01.134Z,9.50
2019-01-16T12:13:01.130Z,5.90
2019-01-16T12:14:01.121Z,8.70
2019-01-16T12:15:01.115Z,7.40
2019-01-16T12:16:01.108Z,7.50
2019-01-16T12:17:01.106Z,6.90
2019-01-16T12:18:01.103Z,8.60
2019-01-16T12:19:01.093Z,8.70
2019-01-16T12:20:01.082Z,6.10
2019-01-16T12:21:01.077Z,9.70
2019-01-16T12:22:01.070Z,6.50
2019-01-16T12:23:01.064Z,6.50
2019-01-16T12:24:01.058Z,8.40
2019-01-16T12:25:01.053Z,11.20
2019-01-16T12:26:07.887Z,8.40
2019-01-16T12:27:01.038Z,7.50
2019-01-16T12:28:01.031Z,7.30
2019-01-16T12:29:01.025Z,12.10
2019-01-16T12:30:01.018Z,7.00
2019-01-16T12:31:01.012Z,4.10
2019-01-16T12:32:01.006Z,4.80
2019-01-16T12:33:00.998Z,6.50
2019-01-16T12:34:01.055Z,10.70
2019-01-16T12:35:00.986Z,4.50
2019-01-16T12:36:00.980Z,7.70
2019-01-16T12:37:00.972Z,8.50
2019-01-16T12:38:00.965Z,4.90
2019-01-16T12:39:00.960Z,7.60
2019-01-16T12:40:00.953Z,4.20
2019-01-16T12:41:00.945Z,5.20
2019-01-16T12:42:00.940Z,7.00
2019-01-16T12:43:00.936Z,5.50
2019-01-16T12:44:00.926Z,6.70
2019-01-16T12:45:00.920Z,4.70
2019-01-16T12:46:00.913Z,4.80
2019-01-16T12:47:00.908Z,4.80
2019-01-16T12:48:00.908Z,5.60
2019-01-16T12:49:00.894Z,6.30
2019-01-16T12:50:00.887Z,5.80
2019-01-16T12:51:00.879Z,5.30
2019-01-16T12:52:00.873Z,4.40
2019-01-16T12:53:00.869Z,4.60
2019-01-16T12:54:00.862Z,4.10
2019-01-16T12:55:00.855Z,9.90
2019-01-16T12:56:00.851Z,5.40
2019-01-16T12:57:00.843Z,7.80
2019-01-16T12:58:00.837Z,4.60
2019-01-16T12:59:00.830Z,9.00
2019-01-16T13:00:00.821Z,5.70
2019-01-16T13:01:00.815Z,9.60
2019-01-16T13:02:00.811Z,5.60
2019-01-16T13:03:00.804Z,7.10
2019-01-16T13:04:00.798Z,7.30
2019-01-16T13:05:00.799Z,6.10
2019-01-16T13:06:00.784Z,5.70
2019-01-16T13:07:00.778Z,7.70
2019-01-16T13:08:00.772Z,4.10
2019-01-16T13:09:00.763Z,5.40
2019-01-16T13:10:00.759Z,8.80
2019-01-16T13:11:00.752Z,6.20